sensor_id;sensor_type;location;lat;lon;timestamp;P1;durP1;ratioP1;P2;durP2;ratioP2
62687;SDS011;48752;51.056;17.056;2024-02-26T00:01:51;67.95;;;35.72;;
62687;SDS011;48752;51.056;17.056;2024-02-26T00:04:17;68.45;;;35.50;;
62687;SDS011;48752;51.056;17.056;2024-02-26T00:06:42;78.85;;;39.38;;
62687;SDS011;48752;51.056;17.056;2024-02-26T00:09:11;78.80;;;41.00;;
62687;SDS011;48752;51.056;17.056;2024-02-26T00:11:37;64.50;;;37.25;;
62687;SDS011;48752;51.056;17.056;2024-02-26T00:14:03;82.57;;;40.30;;
62687;SDS011;48752;51.056;17.056;2024-02-26T00:16:30;86.28;;;47.00;;
62687;SDS011;48752;51.056;17.056;2024-02-26T00:18:57;101.50;;;52.75;;
62687;SDS011;48752;51.056;17.056;2024-02-26T00:21:24;114.50;;;55.53;;
62687;SDS011;48752;51.056;17.056;2024-02-26T00:23:52;102.35;;;52.88;;
62687;SDS011;48752;51.056;17.056;2024-02-26T00:26:19;89.72;;;48.40;;
62687;SDS011;48752;51.056;17.056;2024-02-26T00:28:49;81.03;;;42.15;;
62687;SDS011;48752;51.056;17.056;2024-02-26T00:31:16;90.38;;;44.55;;
62687;SDS011;48752;51.056;17.056;2024-02-26T00:33:41;84.57;;;45.83;;
62687;SDS011;48752;51.056;17.056;2024-02-26T00:36:08;85.75;;;46.63;;
62687;SDS011;48752;51.056;17.056;2024-02-26T00:38:35;84.10;;;46.58;;
62687;SDS011;48752;51.056;17.056;2024-02-26T00:41:02;78.30;;;40.85;;
62687;SDS011;48752;51.056;17.056;2024-02-26T00:43:28;88.72;;;44.50;;
62687;SDS011;48752;51.056;17.056;2024-02-26T00:45:55;88.50;;;46.35;;
62687;SDS011;48752;51.056;17.056;2024-02-26T00:48:20;89.22;;;46.85;;
62687;SDS011;48752;51.056;17.056;2024-02-26T00:50:47;76.97;;;41.75;;
62687;SDS011;48752;51.056;17.056;2024-02-26T00:53:14;81.55;;;45.78;;
62687;SDS011;48752;51.056;17.056;2024-02-26T00:55:41;79.13;;;44.08;;
62687;SDS011;48752;51.056;17.056;2024-02-26T00:58:08;76.53;;;39.17;;
62687;SDS011;48752;51.056;17.056;2024-02-26T01:00:35;72.22;;;37.00;;
62687;SDS011;48752;51.056;17.056;2024-02-26T01:03:02;69.70;;;37.88;;
62687;SDS011;48752;51.056;17.056;2024-02-26T01:05:30;71.45;;;39.05;;
62687;SDS011;48752;51.056;17.056;2024-02-26T01:07:56;67.10;;;36.38;;
62687;SDS011;48752;51.056;17.056;2024-02-26T01:10:22;66.72;;;35.75;;
62687;SDS011;48752;51.056;17.056;2024-02-26T01:12:47;70.75;;;36.10;;
62687;SDS011;48752;51.056;17.056;2024-02-26T01:15:14;62.22;;;33.80;;
62687;SDS011;48752;51.056;17.056;2024-02-26T01:17:39;65.65;;;34.67;;
62687;SDS011;48752;51.056;17.056;2024-02-26T01:20:06;61.60;;;34.13;;
62687;SDS011;48752;51.056;17.056;2024-02-26T01:22:33;68.45;;;36.70;;
62687;SDS011;48752;51.056;17.056;2024-02-26T01:25:01;65.28;;;35.03;;
62687;SDS011;48752;51.056;17.056;2024-02-26T01:27:28;64.82;;;33.47;;
62687;SDS011;48752;51.056;17.056;2024-02-26T01:29:55;74.80;;;38.22;;
62687;SDS011;48752;51.056;17.056;2024-02-26T01:32:20;75.00;;;37.20;;
62687;SDS011;48752;51.056;17.056;2024-02-26T01:34:46;65.28;;;35.30;;
62687;SDS011;48752;51.056;17.056;2024-02-26T01:37:16;66.13;;;34.05;;
62687;SDS011;48752;51.056;17.056;2024-02-26T01:39:46;66.40;;;35.15;;
62687;SDS011;48752;51.056;17.056;2024-02-26T01:42:11;66.00;;;35.85;;
62687;SDS011;48752;51.056;17.056;2024-02-26T01:44:38;63.70;;;34.65;;
62687;SDS011;48752;51.056;17.056;2024-02-26T01:47:04;60.03;;;32.80;;
62687;SDS011;48752;51.056;17.056;2024-02-26T01:49:32;59.78;;;32.80;;
62687;SDS011;48752;51.056;17.056;2024-02-26T01:52:00;59.28;;;30.20;;
62687;SDS011;48752;51.056;17.056;2024-02-26T01:54:26;58.88;;;30.67;;
62687;SDS011;48752;51.056;17.056;2024-02-26T01:57:01;56.08;;;28.08;;
62687;SDS011;48752;51.056;17.056;2024-02-26T01:59:46;58.95;;;30.63;;
62687;SDS011;48752;51.056;17.056;2024-02-26T02:02:12;49.15;;;26.58;;
62687;SDS011;48752;51.056;17.056;2024-02-26T02:04:43;57.67;;;28.10;;
62687;SDS011;48752;51.056;17.056;2024-02-26T02:07:09;50.03;;;27.77;;
62687;SDS011;48752;51.056;17.056;2024-02-26T02:09:35;48.80;;;29.10;;
62687;SDS011;48752;51.056;17.056;2024-02-26T02:12:01;53.55;;;26.70;;
62687;SDS011;48752;51.056;17.056;2024-02-26T02:14:28;53.92;;;26.60;;
62687;SDS011;48752;51.056;17.056;2024-02-26T02:16:55;55.78;;;30.15;;
62687;SDS011;48752;51.056;17.056;2024-02-26T02:19:20;53.60;;;29.00;;
62687;SDS011;48752;51.056;17.056;2024-02-26T02:21:46;51.10;;;30.38;;
62687;SDS011;48752;51.056;17.056;2024-02-26T02:24:12;55.20;;;29.55;;
62687;SDS011;48752;51.056;17.056;2024-02-26T02:26:37;59.00;;;29.55;;
62687;SDS011;48752;51.056;17.056;2024-02-26T02:29:03;60.58;;;30.80;;
62687;SDS011;48752;51.056;17.056;2024-02-26T02:31:30;52.17;;;28.75;;
62687;SDS011;48752;51.056;17.056;2024-02-26T02:33:55;57.00;;;31.73;;
62687;SDS011;48752;51.056;17.056;2024-02-26T02:36:21;51.95;;;29.38;;
62687;SDS011;48752;51.056;17.056;2024-02-26T02:38:50;60.03;;;29.73;;
62687;SDS011;48752;51.056;17.056;2024-02-26T02:41:16;56.20;;;29.50;;
62687;SDS011;48752;51.056;17.056;2024-02-26T02:43:41;59.10;;;30.88;;
62687;SDS011;48752;51.056;17.056;2024-02-26T02:46:06;57.70;;;30.58;;
62687;SDS011;48752;51.056;17.056;2024-02-26T02:48:32;51.38;;;29.50;;
62687;SDS011;48752;51.056;17.056;2024-02-26T02:50:59;58.28;;;30.85;;
62687;SDS011;48752;51.056;17.056;2024-02-26T02:53:24;49.50;;;26.88;;
62687;SDS011;48752;51.056;17.056;2024-02-26T02:55:51;53.75;;;28.27;;
62687;SDS011;48752;51.056;17.056;2024-02-26T02:58:17;52.20;;;28.90;;
62687;SDS011;48752;51.056;17.056;2024-02-26T03:00:42;50.28;;;28.42;;
62687;SDS011;48752;51.056;17.056;2024-02-26T03:03:09;61.83;;;29.58;;
62687;SDS011;48752;51.056;17.056;2024-02-26T03:05:35;54.17;;;27.65;;
62687;SDS011;48752;51.056;17.056;2024-02-26T03:08:01;50.53;;;26.98;;
62687;SDS011;48752;51.056;17.056;2024-02-26T03:10:27;47.00;;;27.70;;
62687;SDS011;48752;51.056;17.056;2024-02-26T03:12:56;58.90;;;28.38;;
62687;SDS011;48752;51.056;17.056;2024-02-26T03:15:21;53.40;;;27.48;;
62687;SDS011;48752;51.056;17.056;2024-02-26T03:17:47;47.33;;;24.73;;
62687;SDS011;48752;51.056;17.056;2024-02-26T03:20:12;49.85;;;25.90;;
62687;SDS011;48752;51.056;17.056;2024-02-26T03:22:39;47.47;;;23.58;;
62687;SDS011;48752;51.056;17.056;2024-02-26T03:25:05;41.78;;;23.65;;
62687;SDS011;48752;51.056;17.056;2024-02-26T03:27:31;42.42;;;23.95;;
62687;SDS011;48752;51.056;17.056;2024-02-26T03:29:58;42.05;;;23.05;;
62687;SDS011;48752;51.056;17.056;2024-02-26T03:32:23;40.92;;;21.83;;
62687;SDS011;48752;51.056;17.056;2024-02-26T03:34:50;42.95;;;22.35;;
62687;SDS011;48752;51.056;17.056;2024-02-26T03:37:19;49.17;;;23.90;;
62687;SDS011;48752;51.056;17.056;2024-02-26T03:39:44;47.03;;;23.02;;
62687;SDS011;48752;51.056;17.056;2024-02-26T03:42:10;49.17;;;22.80;;
62687;SDS011;48752;51.056;17.056;2024-02-26T03:44:35;41.25;;;21.80;;
62687;SDS011;48752;51.056;17.056;2024-02-26T03:47:02;38.33;;;22.27;;
62687;SDS011;48752;51.056;17.056;2024-02-26T03:49:27;42.63;;;24.08;;
62687;SDS011;48752;51.056;17.056;2024-02-26T03:51:53;42.00;;;24.05;;
62687;SDS011;48752;51.056;17.056;2024-02-26T03:54:20;46.25;;;23.00;;
62687;SDS011;48752;51.056;17.056;2024-02-26T03:56:46;52.53;;;24.48;;
62687;SDS011;48752;51.056;17.056;2024-02-26T03:59:14;46.92;;;24.25;;
62687;SDS011;48752;51.056;17.056;2024-02-26T04:01:44;45.75;;;25.88;;
62687;SDS011;48752;51.056;17.056;2024-02-26T04:04:10;43.33;;;24.10;;
62687;SDS011;48752;51.056;17.056;2024-02-26T04:06:36;46.92;;;24.70;;
62687;SDS011;48752;51.056;17.056;2024-02-26T04:09:01;48.42;;;25.55;;
62687;SDS011;48752;51.056;17.056;2024-02-26T04:11:29;45.50;;;25.85;;
62687;SDS011;48752;51.056;17.056;2024-02-26T04:13:55;47.22;;;26.88;;
62687;SDS011;48752;51.056;17.056;2024-02-26T04:16:21;55.97;;;28.30;;
62687;SDS011;48752;51.056;17.056;2024-02-26T04:18:48;46.22;;;27.85;;
62687;SDS011;48752;51.056;17.056;2024-02-26T04:21:15;44.55;;;25.33;;
62687;SDS011;48752;51.056;17.056;2024-02-26T04:23:41;46.60;;;26.52;;
62687;SDS011;48752;51.056;17.056;2024-02-26T04:26:06;41.15;;;24.80;;
62687;SDS011;48752;51.056;17.056;2024-02-26T04:28:31;54.90;;;27.73;;
62687;SDS011;48752;51.056;17.056;2024-02-26T04:30:58;44.72;;;26.70;;
62687;SDS011;48752;51.056;17.056;2024-02-26T04:33:25;44.75;;;27.42;;
62687;SDS011;48752;51.056;17.056;2024-02-26T04:35:50;51.38;;;27.05;;
62687;SDS011;48752;51.056;17.056;2024-02-26T04:38:16;48.60;;;27.25;;
62687;SDS011;48752;51.056;17.056;2024-02-26T04:40:43;51.75;;;27.92;;
62687;SDS011;48752;51.056;17.056;2024-02-26T04:43:10;54.85;;;25.60;;
62687;SDS011;48752;51.056;17.056;2024-02-26T04:45:37;44.22;;;25.63;;
62687;SDS011;48752;51.056;17.056;2024-02-26T04:48:02;48.40;;;26.17;;
62687;SDS011;48752;51.056;17.056;2024-02-26T04:50:30;48.78;;;26.40;;
62687;SDS011;48752;51.056;17.056;2024-02-26T04:52:57;45.08;;;25.38;;
62687;SDS011;48752;51.056;17.056;2024-02-26T04:55:29;48.60;;;25.75;;
62687;SDS011;48752;51.056;17.056;2024-02-26T04:57:55;47.03;;;25.85;;
62687;SDS011;48752;51.056;17.056;2024-02-26T05:00:21;48.53;;;26.20;;
62687;SDS011;48752;51.056;17.056;2024-02-26T05:02:47;44.13;;;24.38;;
62687;SDS011;48752;51.056;17.056;2024-02-26T05:05:12;47.45;;;25.33;;
62687;SDS011;48752;51.056;17.056;2024-02-26T05:07:41;52.88;;;26.17;;
62687;SDS011;48752;51.056;17.056;2024-02-26T05:10:08;55.28;;;25.77;;
62687;SDS011;48752;51.056;17.056;2024-02-26T05:12:38;50.85;;;26.15;;
62687;SDS011;48752;51.056;17.056;2024-02-26T05:15:05;61.67;;;27.27;;
62687;SDS011;48752;51.056;17.056;2024-02-26T05:17:32;47.25;;;25.48;;
62687;SDS011;48752;51.056;17.056;2024-02-26T05:19:58;48.10;;;24.00;;
62687;SDS011;48752;51.056;17.056;2024-02-26T05:22:25;47.28;;;24.73;;
62687;SDS011;48752;51.056;17.056;2024-02-26T05:24:51;51.85;;;25.23;;
62687;SDS011;48752;51.056;17.056;2024-02-26T05:27:17;51.55;;;26.80;;
62687;SDS011;48752;51.056;17.056;2024-02-26T05:29:45;58.25;;;26.70;;
62687;SDS011;48752;51.056;17.056;2024-02-26T05:32:11;49.35;;;26.70;;
62687;SDS011;48752;51.056;17.056;2024-02-26T05:34:37;54.60;;;28.95;;
62687;SDS011;48752;51.056;17.056;2024-02-26T05:37:02;52.03;;;27.25;;
62687;SDS011;48752;51.056;17.056;2024-02-26T05:39:29;48.42;;;26.23;;
62687;SDS011;48752;51.056;17.056;2024-02-26T05:41:54;61.03;;;31.02;;
62687;SDS011;48752;51.056;17.056;2024-02-26T05:44:20;64.63;;;30.52;;
62687;SDS011;48752;51.056;17.056;2024-02-26T05:46:47;65.63;;;28.83;;
62687;SDS011;48752;51.056;17.056;2024-02-26T05:49:12;66.72;;;29.65;;
62687;SDS011;48752;51.056;17.056;2024-02-26T05:51:39;54.55;;;28.63;;
62687;SDS011;48752;51.056;17.056;2024-02-26T05:54:06;60.45;;;29.73;;
62687;SDS011;48752;51.056;17.056;2024-02-26T05:56:33;61.58;;;29.05;;
62687;SDS011;48752;51.056;17.056;2024-02-26T05:59:00;67.55;;;34.67;;
62687;SDS011;48752;51.056;17.056;2024-02-26T06:01:26;55.47;;;30.98;;
62687;SDS011;48752;51.056;17.056;2024-02-26T06:03:52;65.10;;;33.30;;
62687;SDS011;48752;51.056;17.056;2024-02-26T06:06:18;62.17;;;34.83;;
62687;SDS011;48752;51.056;17.056;2024-02-26T06:08:44;61.80;;;29.73;;
62687;SDS011;48752;51.056;17.056;2024-02-26T06:11:12;61.10;;;30.45;;
62687;SDS011;48752;51.056;17.056;2024-02-26T06:13:37;70.68;;;32.25;;
62687;SDS011;48752;51.056;17.056;2024-02-26T06:16:04;63.95;;;32.10;;
62687;SDS011;48752;51.056;17.056;2024-02-26T06:18:30;58.95;;;30.67;;
62687;SDS011;48752;51.056;17.056;2024-02-26T06:20:55;66.57;;;32.80;;
62687;SDS011;48752;51.056;17.056;2024-02-26T06:23:22;67.75;;;35.33;;
62687;SDS011;48752;51.056;17.056;2024-02-26T06:25:48;67.78;;;35.40;;
62687;SDS011;48752;51.056;17.056;2024-02-26T06:28:35;72.03;;;37.90;;
62687;SDS011;48752;51.056;17.056;2024-02-26T06:31:01;88.13;;;42.58;;
62687;SDS011;48752;51.056;17.056;2024-02-26T06:33:29;79.93;;;40.50;;
62687;SDS011;48752;51.056;17.056;2024-02-26T06:35:54;75.00;;;39.60;;
62687;SDS011;48752;51.056;17.056;2024-02-26T06:38:21;85.55;;;45.00;;
62687;SDS011;48752;51.056;17.056;2024-02-26T06:40:47;86.50;;;45.70;;
62687;SDS011;48752;51.056;17.056;2024-02-26T06:43:13;82.93;;;46.47;;
62687;SDS011;48752;51.056;17.056;2024-02-26T06:45:46;81.32;;;43.92;;
62687;SDS011;48752;51.056;17.056;2024-02-26T06:48:12;85.50;;;44.58;;
62687;SDS011;48752;51.056;17.056;2024-02-26T06:50:37;81.57;;;43.58;;
62687;SDS011;48752;51.056;17.056;2024-02-26T06:53:03;92.65;;;47.03;;
62687;SDS011;48752;51.056;17.056;2024-02-26T06:55:33;80.72;;;43.60;;
62687;SDS011;48752;51.056;17.056;2024-02-26T06:57:59;91.28;;;42.63;;
62687;SDS011;48752;51.056;17.056;2024-02-26T07:00:28;68.25;;;39.20;;
62687;SDS011;48752;51.056;17.056;2024-02-26T07:02:53;72.70;;;37.85;;
62687;SDS011;48752;51.056;17.056;2024-02-26T07:05:19;70.05;;;37.55;;
62687;SDS011;48752;51.056;17.056;2024-02-26T07:07:44;71.32;;;36.40;;
62687;SDS011;48752;51.056;17.056;2024-02-26T07:10:10;71.28;;;37.88;;
62687;SDS011;48752;51.056;17.056;2024-02-26T07:12:38;81.20;;;42.70;;
62687;SDS011;48752;51.056;17.056;2024-02-26T07:15:05;67.18;;;38.08;;
62687;SDS011;48752;51.056;17.056;2024-02-26T07:17:34;72.07;;;37.55;;
62687;SDS011;48752;51.056;17.056;2024-02-26T07:20:00;64.53;;;35.35;;
62687;SDS011;48752;51.056;17.056;2024-02-26T07:22:45;67.13;;;36.65;;
62687;SDS011;48752;51.056;17.056;2024-02-26T07:25:23;58.65;;;32.65;;
62687;SDS011;48752;51.056;17.056;2024-02-26T07:27:50;59.85;;;33.88;;
62687;SDS011;48752;51.056;17.056;2024-02-26T07:30:16;59.17;;;32.40;;
62687;SDS011;48752;51.056;17.056;2024-02-26T07:32:42;46.85;;;28.23;;
62687;SDS011;48752;51.056;17.056;2024-02-26T07:35:09;47.22;;;26.90;;
62687;SDS011;48752;51.056;17.056;2024-02-26T07:37:37;45.15;;;25.83;;
62687;SDS011;48752;51.056;17.056;2024-02-26T07:40:17;36.28;;;23.60;;
62687;SDS011;48752;51.056;17.056;2024-02-26T07:42:42;39.60;;;23.70;;
62687;SDS011;48752;51.056;17.056;2024-02-26T07:45:09;41.72;;;25.50;;
62687;SDS011;48752;51.056;17.056;2024-02-26T07:47:46;42.58;;;26.00;;
62687;SDS011;48752;51.056;17.056;2024-02-26T07:50:14;38.38;;;23.83;;
62687;SDS011;48752;51.056;17.056;2024-02-26T07:52:41;37.60;;;25.00;;
62687;SDS011;48752;51.056;17.056;2024-02-26T07:55:07;40.95;;;24.52;;
62687;SDS011;48752;51.056;17.056;2024-02-26T07:57:33;37.28;;;23.08;;
62687;SDS011;48752;51.056;17.056;2024-02-26T07:59:59;33.35;;;22.02;;
62687;SDS011;48752;51.056;17.056;2024-02-26T08:02:25;40.10;;;22.55;;
62687;SDS011;48752;51.056;17.056;2024-02-26T08:04:50;31.02;;;20.30;;
62687;SDS011;48752;51.056;17.056;2024-02-26T08:07:21;37.88;;;20.42;;
62687;SDS011;48752;51.056;17.056;2024-02-26T08:09:47;30.00;;;20.20;;
62687;SDS011;48752;51.056;17.056;2024-02-26T08:12:13;32.20;;;19.83;;
62687;SDS011;48752;51.056;17.056;2024-02-26T08:14:46;30.25;;;19.45;;
62687;SDS011;48752;51.056;17.056;2024-02-26T08:17:13;25.92;;;17.48;;
62687;SDS011;48752;51.056;17.056;2024-02-26T08:19:40;28.80;;;18.17;;
62687;SDS011;48752;51.056;17.056;2024-02-26T08:22:06;25.42;;;15.98;;
62687;SDS011;48752;51.056;17.056;2024-02-26T08:24:45;27.95;;;17.83;;
62687;SDS011;48752;51.056;17.056;2024-02-26T08:27:11;29.38;;;17.92;;
62687;SDS011;48752;51.056;17.056;2024-02-26T08:29:37;24.95;;;15.85;;
62687;SDS011;48752;51.056;17.056;2024-02-26T08:32:03;25.50;;;15.70;;
62687;SDS011;48752;51.056;17.056;2024-02-26T08:34:30;22.50;;;14.82;;
62687;SDS011;48752;51.056;17.056;2024-02-26T08:36:56;25.13;;;16.08;;
62687;SDS011;48752;51.056;17.056;2024-02-26T08:39:22;20.40;;;13.80;;
62687;SDS011;48752;51.056;17.056;2024-02-26T08:41:48;21.65;;;13.43;;
62687;SDS011;48752;51.056;17.056;2024-02-26T08:44:14;21.05;;;13.77;;
62687;SDS011;48752;51.056;17.056;2024-02-26T08:46:40;16.77;;;12.35;;
62687;SDS011;48752;51.056;17.056;2024-02-26T08:49:05;16.58;;;12.27;;
62687;SDS011;48752;51.056;17.056;2024-02-26T08:51:31;18.70;;;11.80;;
62687;SDS011;48752;51.056;17.056;2024-02-26T08:53:58;18.50;;;11.65;;
62687;SDS011;48752;51.056;17.056;2024-02-26T08:56:24;16.83;;;11.80;;
62687;SDS011;48752;51.056;17.056;2024-02-26T08:58:53;20.17;;;11.82;;
62687;SDS011;48752;51.056;17.056;2024-02-26T09:01:22;19.38;;;12.13;;
62687;SDS011;48752;51.056;17.056;2024-02-26T09:03:48;18.30;;;11.38;;
62687;SDS011;48752;51.056;17.056;2024-02-26T09:06:17;20.50;;;11.65;;
62687;SDS011;48752;51.056;17.056;2024-02-26T09:08:45;17.02;;;11.10;;
62687;SDS011;48752;51.056;17.056;2024-02-26T09:11:12;19.35;;;11.02;;
62687;SDS011;48752;51.056;17.056;2024-02-26T09:13:37;22.02;;;11.52;;
62687;SDS011;48752;51.056;17.056;2024-02-26T09:16:04;15.80;;;10.77;;
62687;SDS011;48752;51.056;17.056;2024-02-26T09:18:31;15.45;;;10.82;;
62687;SDS011;48752;51.056;17.056;2024-02-26T09:20:57;19.85;;;10.68;;
62687;SDS011;48752;51.056;17.056;2024-02-26T09:23:22;13.65;;;9.73;;
62687;SDS011;48752;51.056;17.056;2024-02-26T09:25:48;17.15;;;10.02;;
62687;SDS011;48752;51.056;17.056;2024-02-26T09:28:14;17.15;;;10.23;;
62687;SDS011;48752;51.056;17.056;2024-02-26T09:30:43;15.85;;;9.75;;
62687;SDS011;48752;51.056;17.056;2024-02-26T09:33:10;14.43;;;9.45;;
62687;SDS011;48752;51.056;17.056;2024-02-26T09:35:39;13.57;;;9.68;;
62687;SDS011;48752;51.056;17.056;2024-02-26T09:38:04;15.00;;;9.35;;
62687;SDS011;48752;51.056;17.056;2024-02-26T09:40:30;19.77;;;10.20;;
62687;SDS011;48752;51.056;17.056;2024-02-26T09:43:01;12.55;;;9.43;;
62687;SDS011;48752;51.056;17.056;2024-02-26T09:45:30;14.43;;;8.90;;
62687;SDS011;48752;51.056;17.056;2024-02-26T09:47:56;14.55;;;8.65;;
62687;SDS011;48752;51.056;17.056;2024-02-26T09:50:22;10.95;;;7.32;;
62687;SDS011;48752;51.056;17.056;2024-02-26T09:52:48;15.10;;;8.00;;
62687;SDS011;48752;51.056;17.056;2024-02-26T09:55:14;11.85;;;8.23;;
62687;SDS011;48752;51.056;17.056;2024-02-26T09:57:42;11.23;;;7.60;;
62687;SDS011;48752;51.056;17.056;2024-02-26T10:00:20;12.18;;;7.65;;
62687;SDS011;48752;51.056;17.056;2024-02-26T10:02:47;11.20;;;7.80;;
62687;SDS011;48752;51.056;17.056;2024-02-26T10:05:18;10.82;;;6.65;;
62687;SDS011;48752;51.056;17.056;2024-02-26T10:07:47;9.32;;;6.97;;
62687;SDS011;48752;51.056;17.056;2024-02-26T10:10:14;10.40;;;6.43;;
62687;SDS011;48752;51.056;17.056;2024-02-26T10:12:41;8.75;;;5.95;;
62687;SDS011;48752;51.056;17.056;2024-02-26T10:15:07;11.20;;;7.00;;
62687;SDS011;48752;51.056;17.056;2024-02-26T10:17:36;8.77;;;6.13;;
62687;SDS011;48752;51.056;17.056;2024-02-26T10:20:19;9.00;;;5.95;;
62687;SDS011;48752;51.056;17.056;2024-02-26T10:22:47;8.35;;;5.68;;
62687;SDS011;48752;51.056;17.056;2024-02-26T10:25:15;11.70;;;6.43;;
62687;SDS011;48752;51.056;17.056;2024-02-26T10:27:41;9.23;;;6.30;;
62687;SDS011;48752;51.056;17.056;2024-02-26T10:30:17;10.73;;;6.63;;
62687;SDS011;48752;51.056;17.056;2024-02-26T10:32:48;13.07;;;6.70;;
62687;SDS011;48752;51.056;17.056;2024-02-26T10:35:15;12.52;;;7.07;;
62687;SDS011;48752;51.056;17.056;2024-02-26T10:37:49;14.00;;;6.22;;
62687;SDS011;48752;51.056;17.056;2024-02-26T10:40:15;13.70;;;6.97;;
62687;SDS011;48752;51.056;17.056;2024-02-26T10:42:42;9.95;;;6.45;;
62687;SDS011;48752;51.056;17.056;2024-02-26T10:45:11;11.30;;;6.95;;
62687;SDS011;48752;51.056;17.056;2024-02-26T10:47:37;13.13;;;7.43;;
62687;SDS011;48752;51.056;17.056;2024-02-26T10:50:05;15.25;;;6.85;;
62687;SDS011;48752;51.056;17.056;2024-02-26T10:52:32;12.93;;;7.90;;
62687;SDS011;48752;51.056;17.056;2024-02-26T10:55:03;12.10;;;6.95;;
62687;SDS011;48752;51.056;17.056;2024-02-26T10:57:45;11.48;;;7.32;;
62687;SDS011;48752;51.056;17.056;2024-02-26T11:00:16;13.48;;;7.72;;
62687;SDS011;48752;51.056;17.056;2024-02-26T11:02:44;10.80;;;6.00;;
62687;SDS011;48752;51.056;17.056;2024-02-26T11:05:29;12.50;;;6.72;;
62687;SDS011;48752;51.056;17.056;2024-02-26T11:07:55;11.95;;;6.88;;
62687;SDS011;48752;51.056;17.056;2024-02-26T11:10:22;12.70;;;6.60;;
62687;SDS011;48752;51.056;17.056;2024-02-26T11:12:48;11.38;;;6.07;;
62687;SDS011;48752;51.056;17.056;2024-02-26T11:15:23;9.75;;;6.03;;
62687;SDS011;48752;51.056;17.056;2024-02-26T11:17:52;10.63;;;5.93;;
62687;SDS011;48752;51.056;17.056;2024-02-26T11:20:17;10.95;;;5.80;;
62687;SDS011;48752;51.056;17.056;2024-02-26T11:22:44;8.75;;;5.20;;
62687;SDS011;48752;51.056;17.056;2024-02-26T11:25:11;7.18;;;4.95;;
62687;SDS011;48752;51.056;17.056;2024-02-26T11:27:39;7.20;;;4.40;;
62687;SDS011;48752;51.056;17.056;2024-02-26T11:30:11;8.02;;;4.00;;
62687;SDS011;48752;51.056;17.056;2024-02-26T11:32:37;5.10;;;3.67;;
62687;SDS011;48752;51.056;17.056;2024-02-26T11:35:05;7.45;;;3.25;;
62687;SDS011;48752;51.056;17.056;2024-02-26T11:37:33;8.40;;;3.58;;
62687;SDS011;48752;51.056;17.056;2024-02-26T11:40:00;4.82;;;3.28;;
62687;SDS011;48752;51.056;17.056;2024-02-26T11:42:27;4.50;;;2.80;;
62687;SDS011;48752;51.056;17.056;2024-02-26T11:44:56;3.90;;;3.30;;
62687;SDS011;48752;51.056;17.056;2024-02-26T11:47:26;4.72;;;3.20;;
62687;SDS011;48752;51.056;17.056;2024-02-26T11:49:52;7.97;;;3.13;;
62687;SDS011;48752;51.056;17.056;2024-02-26T11:52:19;6.47;;;3.53;;
62687;SDS011;48752;51.056;17.056;2024-02-26T11:54:47;6.85;;;4.03;;
62687;SDS011;48752;51.056;17.056;2024-02-26T11:59:46;6.53;;;3.40;;
62687;SDS011;48752;51.056;17.056;2024-02-26T12:02:58;5.90;;;3.00;;
62687;SDS011;48752;51.056;17.056;2024-02-26T12:05:10;6.47;;;3.33;;
62687;SDS011;48752;51.056;17.056;2024-02-26T12:07:59;6.45;;;3.00;;
62687;SDS011;48752;51.056;17.056;2024-02-26T12:15:56;9.18;;;3.38;;
62687;SDS011;48752;51.056;17.056;2024-02-26T12:18:23;5.50;;;3.22;;
62687;SDS011;48752;51.056;17.056;2024-02-26T12:21:03;7.35;;;3.50;;
62687;SDS011;48752;51.056;17.056;2024-02-26T12:23:29;4.53;;;3.35;;
62687;SDS011;48752;51.056;17.056;2024-02-26T12:25:58;4.40;;;2.97;;
62687;SDS011;48752;51.056;17.056;2024-02-26T12:28:28;5.60;;;3.10;;
62687;SDS011;48752;51.056;17.056;2024-02-26T12:30:54;7.75;;;2.85;;
62687;SDS011;48752;51.056;17.056;2024-02-26T12:33:22;6.22;;;3.33;;
62687;SDS011;48752;51.056;17.056;2024-02-26T12:35:49;6.35;;;3.00;;
62687;SDS011;48752;51.056;17.056;2024-02-26T12:38:16;3.22;;;2.40;;
62687;SDS011;48752;51.056;17.056;2024-02-26T12:40:43;5.28;;;2.33;;
62687;SDS011;48752;51.056;17.056;2024-02-26T12:45:41;5.63;;;3.00;;
62687;SDS011;48752;51.056;17.056;2024-02-26T12:48:07;4.40;;;2.92;;
62687;SDS011;48752;51.056;17.056;2024-02-26T12:50:32;5.90;;;2.92;;
62687;SDS011;48752;51.056;17.056;2024-02-26T12:53:00;5.22;;;3.08;;
62687;SDS011;48752;51.056;17.056;2024-02-26T12:55:26;7.55;;;3.80;;
62687;SDS011;48752;51.056;17.056;2024-02-26T12:57:52;9.57;;;3.40;;
62687;SDS011;48752;51.056;17.056;2024-02-26T13:00:24;5.13;;;2.90;;
62687;SDS011;48752;51.056;17.056;2024-02-26T13:02:50;5.47;;;3.42;;
62687;SDS011;48752;51.056;17.056;2024-02-26T13:05:17;5.40;;;3.47;;
62687;SDS011;48752;51.056;17.056;2024-02-26T13:07:44;7.05;;;3.33;;
62687;SDS011;48752;51.056;17.056;2024-02-26T13:10:12;8.55;;;3.78;;
62687;SDS011;48752;51.056;17.056;2024-02-26T13:12:46;5.68;;;2.85;;
62687;SDS011;48752;51.056;17.056;2024-02-26T13:15:19;7.28;;;3.58;;
62687;SDS011;48752;51.056;17.056;2024-02-26T13:17:46;8.10;;;3.58;;
62687;SDS011;48752;51.056;17.056;2024-02-26T13:20:12;5.63;;;3.50;;
62687;SDS011;48752;51.056;17.056;2024-02-26T13:22:40;8.38;;;3.38;;
62687;SDS011;48752;51.056;17.056;2024-02-26T13:25:07;6.60;;;3.10;;
62687;SDS011;48752;51.056;17.056;2024-02-26T13:27:35;6.82;;;4.00;;
62687;SDS011;48752;51.056;17.056;2024-02-26T13:30:11;5.50;;;3.10;;
62687;SDS011;48752;51.056;17.056;2024-02-26T13:32:38;7.15;;;3.88;;
62687;SDS011;48752;51.056;17.056;2024-02-26T13:35:09;6.18;;;3.42;;
62687;SDS011;48752;51.056;17.056;2024-02-26T13:37:39;4.25;;;3.20;;
62687;SDS011;48752;51.056;17.056;2024-02-26T13:40:07;6.57;;;3.80;;
62687;SDS011;48752;51.056;17.056;2024-02-26T13:42:38;6.22;;;3.63;;
62687;SDS011;48752;51.056;17.056;2024-02-26T13:45:04;4.10;;;3.13;;
62687;SDS011;48752;51.056;17.056;2024-02-26T13:47:34;8.43;;;3.70;;
62687;SDS011;48752;51.056;17.056;2024-02-26T13:50:00;5.32;;;3.25;;
62687;SDS011;48752;51.056;17.056;2024-02-26T13:52:26;7.68;;;3.83;;
62687;SDS011;48752;51.056;17.056;2024-02-26T13:54:53;7.15;;;3.53;;
62687;SDS011;48752;51.056;17.056;2024-02-26T13:57:20;3.85;;;3.20;;
62687;SDS011;48752;51.056;17.056;2024-02-26T13:59:46;4.53;;;3.40;;
62687;SDS011;48752;51.056;17.056;2024-02-26T14:02:14;5.50;;;3.00;;
62687;SDS011;48752;51.056;17.056;2024-02-26T14:04:39;5.47;;;3.10;;
62687;SDS011;48752;51.056;17.056;2024-02-26T14:07:06;9.00;;;3.60;;
62687;SDS011;48752;51.056;17.056;2024-02-26T14:09:33;4.20;;;2.97;;
62687;SDS011;48752;51.056;17.056;2024-02-26T14:12:01;5.47;;;3.97;;
62687;SDS011;48752;51.056;17.056;2024-02-26T14:14:28;8.25;;;4.10;;
62687;SDS011;48752;51.056;17.056;2024-02-26T14:16:53;6.28;;;3.90;;
62687;SDS011;48752;51.056;17.056;2024-02-26T14:19:19;10.60;;;3.20;;
62687;SDS011;48752;51.056;17.056;2024-02-26T14:21:44;5.63;;;3.67;;
62687;SDS011;48752;51.056;17.056;2024-02-26T14:24:12;6.43;;;3.63;;
62687;SDS011;48752;51.056;17.056;2024-02-26T14:26:41;6.60;;;3.30;;
62687;SDS011;48752;51.056;17.056;2024-02-26T14:31:37;10.60;;;4.53;;